Time;durP1;ratioP1;P1;durP2;ratioP2;P2;SDS_P1;SDS_P2;PMS_P1;PMS_P2;Temp;Humidity;BMP_temperature;BMP_pressure;BME280_temperature;BME280_humidity;BME280_pressure;Samples;Min_cycle;Max_cycle;Signal;HPM_P1;HPM_P2
2021/09/24 07:32:26;;;;;;;5.80;1.90;;;;;;;11.02;86.57;96823.31;1871560;76;22626;-61
2021/09/24 07:34:52;;;;;;;6.08;1.67;;;;;;;11.03;86.75;96823.53;1827960;78;20852;-61
2021/09/24 07:37:20;;;;;;;7.55;1.72;;;;;;;11.11;86.23;96820.05;1827981;78;21807;-61
2021/09/24 07:39:48;;;;;;;5.35;1.52;;;;;;;11.17;85.71;96830.26;1827838;78;21445;-61
2021/09/24 07:42:15;;;;;;;6.45;1.60;;;;;;;11.25;85.93;96828.66;1827989;78;21382;-64
2021/09/24 07:44:41;;;;;;;6.50;1.80;;;;;;;11.29;85.24;96821.53;1826946;78;20907;-61
2021/09/24 07:47:08;;;;;;;3.65;1.25;;;;;;;11.31;84.87;96830.04;1826511;78;20998;-61
2021/09/24 07:49:35;;;;;;;8.18;1.75;;;;;;;11.33;84.46;96841.25;1826380;78;21110;-60
2021/09/24 07:52:02;;;;;;;5.12;1.70;;;;;;;11.33;83.92;96835.89;1826262;78;20981;-61
2021/09/24 07:54:29;;;;;;;8.40;1.80;;;;;;;11.32;84.11;96834.30;1826339;78;21464;-59
2021/09/24 07:56:56;;;;;;;6.03;1.70;;;;;;;11.31;83.51;96842.10;1826332;78;21084;-62
2021/09/24 07:59:24;;;;;;;5.33;1.80;;;;;;;11.30;84.09;96852.61;1826764;78;20911;-61
2021/09/24 08:01:51;;;;;;;4.95;1.90;;;;;;;11.28;83.29;96853.48;1827853;78;21714;-60
2021/09/24 08:04:17;;;;;;;6.47;1.62;;;;;;;11.23;83.69;96858.47;1828134;78;21001;-60
2021/09/24 08:06:46;;;;;;;6.30;1.70;;;;;;;11.22;83.34;96869.50;1827789;78;20876;-60
2021/09/24 08:09:13;;;;;;;6.08;1.55;;;;;;;11.21;83.16;96862.58;1825474;77;20896;-61
2021/09/24 08:11:40;;;;;;;5.75;1.50;;;;;;;11.20;82.72;96859.11;1795444;78;20935;-60
2021/09/24 08:14:06;;;;;;;6.47;1.50;;;;;;;11.22;83.00;96856.09;1827821;78;21113;-61
2021/09/24 08:16:33;;;;;;;5.28;1.57;;;;;;;11.22;82.40;96860.11;1797504;78;20912;-60
2021/09/24 08:19:02;;;;;;;9.58;2.60;;;;;;;11.21;82.20;96850.52;1795264;79;20888;-60
2021/09/24 08:21:30;;;;;;;7.12;1.90;;;;;;;11.22;82.31;96874.31;1795291;79;21498;-60
2021/09/24 08:23:59;;;;;;;5.22;1.75;;;;;;;11.26;82.24;96873.12;1795182;79;20962;-61
2021/09/24 08:26:28;;;;;;;6.03;1.57;;;;;;;11.27;82.21;96877.37;1824966;78;20971;-60
2021/09/24 08:28:55;;;;;;;6.28;1.50;;;;;;;11.29;81.74;96885.87;1827744;78;20911;-60
2021/09/24 08:31:23;;;;;;;5.22;1.77;;;;;;;11.26;81.22;96881.17;1820871;78;21006;-61
2021/09/24 08:33:50;;;;;;;5.42;1.62;;;;;;;11.22;81.90;96887.71;1815680;79;20959;-61
2021/09/24 08:36:19;;;;;;;5.35;1.57;;;;;;;11.20;82.40;96882.44;1814549;78;20975;-61
2021/09/24 08:38:45;;;;;;;5.83;1.67;;;;;;;11.21;81.93;96897.42;1815085;79;21802;-60
2021/09/24 08:41:12;;;;;;;6.42;1.60;;;;;;;11.18;81.31;96898.05;1815436;78;20869;-62
2021/09/24 08:43:40;;;;;;;8.43;2.02;;;;;;;11.14;80.94;96905.93;1815888;78;20960;-61
2021/09/24 08:46:08;;;;;;;5.45;1.77;;;;;;;11.13;81.50;96915.09;1816119;78;20924;-62
2021/09/24 08:48:34;;;;;;;4.47;1.35;;;;;;;11.10;81.73;96912.25;1816026;78;20907;-60
2021/09/24 08:51:01;;;;;;;7.17;1.80;;;;;;;11.04;82.55;96921.58;1816279;79;21083;-60
2021/09/24 08:53:29;;;;;;;5.15;1.50;;;;;;;10.96;82.76;96918.59;1816023;78;21408;-60
2021/09/24 08:55:55;;;;;;;6.70;1.80;;;;;;;10.97;82.90;96928.19;1815865;78;20913;-61
2021/09/24 08:58:23;;;;;;;5.80;1.87;;;;;;;10.92;83.23;96923.02;1816014;78;20947;-61
2021/09/24 09:00:50;;;;;;;9.70;2.02;;;;;;;10.93;83.08;96917.88;1815579;79;21453;-60
2021/09/24 09:03:20;;;;;;;4.45;2.10;;;;;;;10.92;82.56;96925.70;1815947;78;21716;-61
2021/09/24 09:05:53;;;;;;;7.87;1.80;;;;;;;10.91;81.71;96917.41;1815998;79;21508;-61
2021/09/24 09:08:27;;;;;;;7.50;2.42;;;;;;;10.97;81.85;96924.75;1815851;79;20935;-60
2021/09/24 09:11:00;;;;;;;6.85;2.17;;;;;;;11.04;81.92;96926.94;1816045;78;20865;-61
2021/09/24 09:13:44;;;;;;;8.43;2.05;;;;;;;11.11;82.02;96925.89;1815966;78;21414;-61
2021/09/24 09:16:34;;;;;;;7.12;2.10;;;;;;;11.18;81.30;96926.98;1777247;80;21121;-60
2021/09/24 09:19:13;;;;;;;8.35;1.85;;;;;;;11.23;80.04;96927.38;1776180;80;21413;-61
2021/09/24 09:21:43;;;;;;;6.65;2.00;;;;;;;11.26;79.56;96928.08;1777326;80;20868;-60
2021/09/24 09:24:18;;;;;;;5.20;1.65;;;;;;;11.30;80.14;96936.50;1777165;80;20880;-60
2021/09/24 09:26:46;;;;;;;7.53;1.92;;;;;;;11.32;79.65;96932.15;1777319;80;20880;-61
2021/09/24 09:29:13;;;;;;;8.30;1.87;;;;;;;11.32;79.36;96943.66;1778572;79;21106;-61
2021/09/24 09:31:40;;;;;;;6.90;1.75;;;;;;;11.35;79.80;96948.95;1822232;78;20968;-61
2021/09/24 09:34:09;;;;;;;4.47;2.05;;;;;;;11.38;79.23;96950.97;1825699;78;20992;-61
2021/09/24 09:36:41;;;;;;;6.72;1.90;;;;;;;11.41;78.57;96942.29;1796101;78;20882;-61
2021/09/24 09:39:15;;;;;;;5.67;2.10;;;;;;;11.44;79.00;96953.17;1825338;78;21304;-60
